createdAt,value
2022-12-29T00:00:52.894Z,969.50
2022-12-29T00:01:52.323Z,969.49
2022-12-29T00:02:52.543Z,969.49
2022-12-29T00:03:53.349Z,969.49
2022-12-29T00:04:53.297Z,969.51
2022-12-29T00:05:52.423Z,969.48
2022-12-29T00:06:52.460Z,969.46
2022-12-29T00:07:52.523Z,969.43
2022-12-29T00:08:52.557Z,969.47
2022-12-29T00:09:53.301Z,969.44
2022-12-29T00:10:52.659Z,969.46
2022-12-29T00:11:52.679Z,969.43
2022-12-29T00:12:52.728Z,969.45
2022-12-29T00:13:52.755Z,969.47
2022-12-29T00:14:52.817Z,969.39
2022-12-29T00:15:52.864Z,969.42
2022-12-29T00:16:52.885Z,969.40
2022-12-29T00:17:52.926Z,969.43
2022-12-29T00:18:53.019Z,969.36
2022-12-29T00:19:53.019Z,969.35
2022-12-29T00:20:53.057Z,969.34
2022-12-29T00:21:53.117Z,969.33
2022-12-29T00:22:53.137Z,969.33
2022-12-29T00:23:53.215Z,969.31
2022-12-29T00:24:53.230Z,969.25
2022-12-29T00:25:53.270Z,969.27
2022-12-29T00:26:53.333Z,969.28
2022-12-29T00:27:53.356Z,969.22
2022-12-29T00:28:53.392Z,969.20
2022-12-29T00:29:53.463Z,969.17
2022-12-29T00:30:53.537Z,969.14
2022-12-29T00:31:53.522Z,969.12
2022-12-29T00:32:53.594Z,969.08
2022-12-29T00:33:54.293Z,969.05
2022-12-29T00:34:53.656Z,969.11
2022-12-29T00:35:54.306Z,969.16
2022-12-29T00:36:53.750Z,969.13
2022-12-29T00:37:53.779Z,969.16
2022-12-29T00:38:53.844Z,969.15
2022-12-29T00:39:53.855Z,969.16
2022-12-29T00:40:53.897Z,969.20
2022-12-29T00:41:53.983Z,969.23
2022-12-29T00:42:53.989Z,969.26
2022-12-29T00:43:54.060Z,969.21
2022-12-29T00:44:54.096Z,969.20
2022-12-29T00:45:54.798Z,969.16
2022-12-29T00:46:54.238Z,969.07
2022-12-29T00:47:54.196Z,969.17
2022-12-29T00:48:54.285Z,969.18
2022-12-29T00:49:54.279Z,969.15
2022-12-29T00:50:54.332Z,969.12
2022-12-29T00:51:55.300Z,969.10
2022-12-29T00:52:54.450Z,969.13
2022-12-29T00:53:54.452Z,969.08
2022-12-29T00:54:54.500Z,969.11
2022-12-29T00:55:54.538Z,969.13
2022-12-29T00:56:54.577Z,969.08
2022-12-29T00:57:54.655Z,969.07
2022-12-29T00:58:54.661Z,969.06
2022-12-29T00:59:54.703Z,969.07
2022-12-29T01:00:54.790Z,969.10
2022-12-29T01:01:54.902Z,969.11
2022-12-29T01:02:54.970Z,969.12
2022-12-29T01:03:58.651Z,969.15
2022-12-29T01:04:54.918Z,969.17
2022-12-29T01:05:54.966Z,969.17
2022-12-29T01:06:55.016Z,969.12
2022-12-29T01:07:55.086Z,969.16
2022-12-29T01:08:55.109Z,969.15
2022-12-29T01:09:55.798Z,969.08
2022-12-29T01:10:55.171Z,969.12
2022-12-29T01:11:55.215Z,969.13
2022-12-29T01:12:55.292Z,969.07
2022-12-29T01:13:55.308Z,969.07
2022-12-29T01:14:56.316Z,969.04
2022-12-29T01:15:55.438Z,969.05
2022-12-29T01:16:55.451Z,969.04
2022-12-29T01:17:55.504Z,969.08
2022-12-29T01:18:55.529Z,969.09
2022-12-29T01:19:55.583Z,969.10
2022-12-29T01:20:55.598Z,969.18
2022-12-29T01:21:55.652Z,969.20
2022-12-29T01:22:55.734Z,969.14
2022-12-29T01:23:55.732Z,969.05
2022-12-29T01:24:55.803Z,969.11
2022-12-29T01:25:55.815Z,969.15
2022-12-29T01:26:55.922Z,969.11
2022-12-29T01:27:55.925Z,969.14
2022-12-29T01:28:55.954Z,969.13
2022-12-29T01:29:56.032Z,969.09
2022-12-29T01:31:04.869Z,969.13
2022-12-29T01:31:56.112Z,969.17
2022-12-29T01:32:56.128Z,969.19
2022-12-29T01:33:56.872Z,969.11
2022-12-29T01:34:56.254Z,969.16
2022-12-29T01:35:56.259Z,969.18
2022-12-29T01:36:56.307Z,969.19
2022-12-29T01:37:56.344Z,969.18
2022-12-29T01:38:56.377Z,969.16
2022-12-29T01:39:56.461Z,969.10
2022-12-29T01:40:56.474Z,969.11
2022-12-29T01:41:56.514Z,969.13
2022-12-29T01:42:56.563Z,969.07
2022-12-29T01:43:56.591Z,969.07
2022-12-29T01:44:56.664Z,969.15
2022-12-29T01:45:57.361Z,969.11
2022-12-29T01:46:56.725Z,969.10
2022-12-29T01:47:56.778Z,969.16
2022-12-29T01:48:56.809Z,969.16
2022-12-29T01:49:56.903Z,969.13
2022-12-29T01:50:57.841Z,969.14
2022-12-29T01:51:56.947Z,969.09
2022-12-29T01:52:57.019Z,969.12
2022-12-29T01:53:57.040Z,969.12
2022-12-29T01:54:57.077Z,969.08
2022-12-29T01:55:57.855Z,969.09
2022-12-29T01:56:57.157Z,969.08
2022-12-29T01:57:57.230Z,969.08
2022-12-29T01:58:57.247Z,969.12
2022-12-29T01:59:57.308Z,969.16
2022-12-29T02:00:57.401Z,969.23
2022-12-29T02:01:57.425Z,969.21
2022-12-29T02:02:57.497Z,969.24
2022-12-29T02:03:57.461Z,969.18
2022-12-29T02:05:01.407Z,969.14
2022-12-29T02:05:57.570Z,969.06
2022-12-29T02:06:57.610Z,969.09
2022-12-29T02:07:57.674Z,969.09
2022-12-29T02:08:57.682Z,969.03
2022-12-29T02:09:57.733Z,969.05
2022-12-29T02:10:58.342Z,968.96
2022-12-29T02:11:57.820Z,968.99
2022-12-29T02:12:57.893Z,969.04
2022-12-29T02:13:59.310Z,968.99
2022-12-29T02:14:57.945Z,969.05
2022-12-29T02:15:58.054Z,969.00
2022-12-29T02:16:58.917Z,968.94
2022-12-29T02:17:58.100Z,969.03
2022-12-29T02:18:58.130Z,969.08
2022-12-29T02:19:58.187Z,969.13
2022-12-29T02:20:58.248Z,969.04
2022-12-29T02:21:58.254Z,968.96
2022-12-29T02:22:58.307Z,969.06
2022-12-29T02:23:58.343Z,969.14
2022-12-29T02:24:58.388Z,969.15
2022-12-29T02:25:58.459Z,969.19
2022-12-29T02:26:58.471Z,969.30
2022-12-29T02:27:58.520Z,969.26
2022-12-29T02:28:58.563Z,969.12
2022-12-29T02:29:58.605Z,969.06
2022-12-29T02:30:58.685Z,969.10
2022-12-29T02:31:58.752Z,969.17
2022-12-29T02:32:58.732Z,969.22
2022-12-29T02:33:58.809Z,969.21
2022-12-29T02:34:59.355Z,969.23
2022-12-29T02:35:59.849Z,969.23
2022-12-29T02:36:58.941Z,969.18
2022-12-29T02:37:58.973Z,969.20
2022-12-29T02:38:59.001Z,969.22
2022-12-29T02:39:59.053Z,969.19
2022-12-29T02:40:59.088Z,969.19
2022-12-29T02:41:59.165Z,969.21
2022-12-29T02:42:59.185Z,969.17
2022-12-29T02:43:59.228Z,969.23
2022-12-29T02:44:59.291Z,969.22
2022-12-29T02:45:59.353Z,969.17
2022-12-29T02:46:59.383Z,969.17
2022-12-29T02:47:59.391Z,969.21
2022-12-29T02:48:59.438Z,969.15
2022-12-29T02:49:59.509Z,969.08
2022-12-29T02:50:59.560Z,969.01
2022-12-29T02:51:59.575Z,969.07
2022-12-29T02:52:59.620Z,969.05
2022-12-29T02:54:00.350Z,969.04
2022-12-29T02:54:59.737Z,968.99
2022-12-29T02:55:59.747Z,969.03
2022-12-29T02:56:59.796Z,969.03
2022-12-29T02:57:59.839Z,969.03
2022-12-29T02:59:00.855Z,969.01
2022-12-29T02:59:59.957Z,969.06
2022-12-29T03:01:00.915Z,969.09
2022-12-29T03:02:00.229Z,969.10
2022-12-29T03:03:00.199Z,969.07
2022-12-29T03:04:00.125Z,969.04
2022-12-29T03:05:00.159Z,969.02
2022-12-29T03:06:00.198Z,969.05
2022-12-29T03:07:00.858Z,969.11
2022-12-29T03:08:00.325Z,969.15
2022-12-29T03:09:00.343Z,969.15
2022-12-29T03:10:00.362Z,969.10
2022-12-29T03:11:01.355Z,969.12
2022-12-29T03:12:00.469Z,969.11
2022-12-29T03:13:00.546Z,969.12
2022-12-29T03:14:00.541Z,969.00
2022-12-29T03:15:01.360Z,969.02
2022-12-29T03:16:01.366Z,969.06
2022-12-29T03:17:00.735Z,969.10
2022-12-29T03:18:00.759Z,969.10
2022-12-29T03:19:00.771Z,969.04
2022-12-29T03:20:00.849Z,969.07
2022-12-29T03:21:00.848Z,969.09
2022-12-29T03:22:01.869Z,969.12
2022-12-29T03:23:00.959Z,969.17
2022-12-29T03:24:01.859Z,969.16
2022-12-29T03:25:01.064Z,969.23
2022-12-29T03:26:01.862Z,969.20
2022-12-29T03:27:01.128Z,969.16
2022-12-29T03:28:01.211Z,969.26
2022-12-29T03:29:01.204Z,969.26
2022-12-29T03:30:01.265Z,969.28
2022-12-29T03:31:01.395Z,969.26
2022-12-29T03:32:01.870Z,969.32
2022-12-29T03:33:01.382Z,969.36
2022-12-29T03:34:01.434Z,969.36
2022-12-29T03:35:02.355Z,969.38
2022-12-29T03:36:01.554Z,969.33
2022-12-29T03:37:01.565Z,969.28
2022-12-29T03:38:02.350Z,969.33
2022-12-29T03:39:01.663Z,969.35
2022-12-29T03:40:02.385Z,969.37
2022-12-29T03:41:01.782Z,969.32
2022-12-29T03:42:01.821Z,969.26
2022-12-29T03:43:01.830Z,969.20
2022-12-29T03:44:01.873Z,969.22
2022-12-29T03:45:02.871Z,969.17
2022-12-29T03:46:02.885Z,969.08
2022-12-29T03:47:02.027Z,969.00
2022-12-29T03:49:29.111Z,969.07
2022-12-29T03:49:56.908Z,969.11
2022-12-29T03:50:30.439Z,969.11
2022-12-29T03:51:29.987Z,969.07
2022-12-29T03:52:30.010Z,969.15
2022-12-29T03:53:30.047Z,969.23
2022-12-29T03:54:30.091Z,969.27
2022-12-29T03:55:30.960Z,969.28
2022-12-29T03:56:30.215Z,969.25
2022-12-29T03:57:30.225Z,969.26
2022-12-29T03:58:30.274Z,969.27
2022-12-29T03:59:30.309Z,969.31
2022-12-29T04:00:30.944Z,969.30
2022-12-29T04:01:30.543Z,969.28
2022-12-29T04:02:30.615Z,969.33
2022-12-29T04:03:31.493Z,969.31
2022-12-29T04:04:30.537Z,969.29
2022-12-29T04:05:31.444Z,969.27
2022-12-29T04:06:30.657Z,969.28
2022-12-29T04:07:30.664Z,969.30
2022-12-29T04:08:30.713Z,969.25
2022-12-29T04:09:31.448Z,969.25
2022-12-29T04:10:30.799Z,969.28
2022-12-29T04:11:33.285Z,969.21
2022-12-29T04:12:30.905Z,969.16
2022-12-29T04:13:30.933Z,969.16
2022-12-29T04:14:30.973Z,969.14
2022-12-29T04:15:31.092Z,969.15
2022-12-29T04:16:31.960Z,969.14
2022-12-29T04:17:31.100Z,969.09
2022-12-29T04:18:31.150Z,968.95
2022-12-29T04:19:31.205Z,968.84
2022-12-29T04:20:31.273Z,968.98
2022-12-29T04:21:31.287Z,969.14
2022-12-29T04:22:31.326Z,969.14
2022-12-29T04:23:31.373Z,969.09
2022-12-29T04:24:31.413Z,969.07
2022-12-29T04:25:31.483Z,968.91
2022-12-29T04:26:31.547Z,968.81
2022-12-29T04:27:31.537Z,968.99
2022-12-29T04:28:31.589Z,969.15
2022-12-29T04:29:31.642Z,969.21
2022-12-29T04:30:31.691Z,969.18
2022-12-29T04:31:31.747Z,969.10
2022-12-29T04:32:31.765Z,969.06
2022-12-29T04:33:31.819Z,969.12
2022-12-29T04:34:32.442Z,969.23
2022-12-29T04:35:31.892Z,969.27
2022-12-29T04:36:31.943Z,969.15
2022-12-29T04:37:31.974Z,969.10
2022-12-29T04:38:32.060Z,969.21
2022-12-29T04:39:32.061Z,969.30
2022-12-29T04:40:32.187Z,969.24
2022-12-29T04:41:32.140Z,969.15
2022-12-29T04:42:32.186Z,969.14
2022-12-29T04:43:32.245Z,969.16
2022-12-29T04:44:32.290Z,969.23
2022-12-29T04:45:32.374Z,969.26
2022-12-29T04:46:32.995Z,969.19
2022-12-29T04:47:32.440Z,969.06
2022-12-29T04:48:32.461Z,969.02
2022-12-29T04:49:32.541Z,969.11
2022-12-29T04:50:32.547Z,969.16
2022-12-29T04:51:32.583Z,969.19
2022-12-29T04:52:32.634Z,969.22
2022-12-29T04:53:33.464Z,969.15
2022-12-29T04:54:32.751Z,969.12
2022-12-29T04:55:33.479Z,969.03
2022-12-29T04:56:32.802Z,968.98
2022-12-29T04:57:32.847Z,968.91
2022-12-29T04:58:32.893Z,968.94
2022-12-29T04:59:32.964Z,968.92
2022-12-29T05:00:32.993Z,968.95
2022-12-29T05:01:33.135Z,969.04
2022-12-29T05:02:33.234Z,969.05
2022-12-29T05:03:33.218Z,969.05
2022-12-29T05:04:33.153Z,969.01
2022-12-29T05:05:33.200Z,969.02
2022-12-29T05:06:33.255Z,969.03
2022-12-29T05:07:33.311Z,969.07
2022-12-29T05:08:33.348Z,969.09
2022-12-29T05:09:33.374Z,969.12
2022-12-29T05:10:33.405Z,969.05
2022-12-29T05:11:33.956Z,969.01
2022-12-29T05:12:33.508Z,968.95
2022-12-29T05:13:33.609Z,968.92
2022-12-29T05:14:33.590Z,968.86
2022-12-29T05:15:33.631Z,968.78
2022-12-29T05:16:33.752Z,968.78
2022-12-29T05:17:33.718Z,968.83
2022-12-29T05:18:33.801Z,968.88
2022-12-29T05:19:33.813Z,968.82
2022-12-29T05:20:33.852Z,968.78
2022-12-29T05:21:33.938Z,968.81
2022-12-29T05:22:33.933Z,968.85
2022-12-29T05:23:33.987Z,968.85
2022-12-29T05:24:34.959Z,968.94
2022-12-29T05:25:34.061Z,968.95
2022-12-29T05:26:34.142Z,968.96
2022-12-29T05:27:34.164Z,968.94
2022-12-29T05:28:34.201Z,968.98
2022-12-29T05:29:34.248Z,969.02
2022-12-29T05:30:34.287Z,969.07
2022-12-29T05:31:34.397Z,969.01
2022-12-29T05:32:34.376Z,968.98
2022-12-29T05:33:34.410Z,968.91
2022-12-29T05:34:34.468Z,968.90
2022-12-29T05:35:34.497Z,968.87
2022-12-29T05:36:37.768Z,968.86
2022-12-29T05:37:34.587Z,968.86
2022-12-29T05:38:34.631Z,968.84
2022-12-29T05:39:34.679Z,968.84
2022-12-29T05:40:34.723Z,968.85
2022-12-29T05:41:34.786Z,968.82
2022-12-29T05:42:34.816Z,968.74
2022-12-29T05:43:34.875Z,968.73
2022-12-29T05:44:34.884Z,968.71
2022-12-29T05:45:34.932Z,968.70
2022-12-29T05:46:35.044Z,968.67
2022-12-29T05:47:35.053Z,968.60
2022-12-29T05:48:38.045Z,968.56
2022-12-29T05:49:35.140Z,968.61
2022-12-29T05:50:35.963Z,968.58
2022-12-29T05:51:35.201Z,968.56
2022-12-29T05:52:35.973Z,968.52
2022-12-29T05:53:35.323Z,968.59
2022-12-29T05:54:35.389Z,968.60
2022-12-29T05:55:35.395Z,968.63
2022-12-29T05:56:35.426Z,968.69
2022-12-29T05:57:35.501Z,968.73
2022-12-29T05:58:35.532Z,968.72
2022-12-29T05:59:35.557Z,968.70
2022-12-29T06:00:35.595Z,968.62
2022-12-29T06:01:36.523Z,968.64
2022-12-29T06:02:35.872Z,968.64
2022-12-29T06:03:35.851Z,968.69
2022-12-29T06:04:35.755Z,968.68
2022-12-29T06:05:35.837Z,968.68
2022-12-29T06:07:19.496Z,968.64
2022-12-29T06:07:36.498Z,968.67
2022-12-29T06:08:35.928Z,968.65
2022-12-29T06:09:35.974Z,968.64
2022-12-29T06:10:36.050Z,968.73
2022-12-29T06:11:36.065Z,968.70
2022-12-29T06:12:36.103Z,968.74
2022-12-29T06:13:37.009Z,968.78
2022-12-29T06:14:37.008Z,968.79
2022-12-29T06:15:36.266Z,968.80
2022-12-29T06:16:36.309Z,968.84
2022-12-29T06:17:36.369Z,968.78
2022-12-29T06:18:36.362Z,968.78
2022-12-29T06:19:36.424Z,968.86
2022-12-29T06:20:36.482Z,968.92
2022-12-29T06:21:36.501Z,968.93
2022-12-29T06:22:36.537Z,968.91
2022-12-29T06:23:36.579Z,968.89
2022-12-29T06:24:36.623Z,968.90
2022-12-29T06:25:36.691Z,968.92
2022-12-29T06:26:36.715Z,968.96
2022-12-29T06:27:36.779Z,968.93
2022-12-29T06:28:36.794Z,968.95
2022-12-29T06:29:36.844Z,969.01
2022-12-29T06:30:36.897Z,968.98
2022-12-29T06:31:37.058Z,968.94
2022-12-29T06:32:36.981Z,968.99
2022-12-29T06:33:37.018Z,968.98
2022-12-29T06:34:37.066Z,969.01
2022-12-29T06:35:37.114Z,969.04
2022-12-29T06:36:37.214Z,969.09
2022-12-29T06:37:37.203Z,969.12
2022-12-29T06:38:38.020Z,969.12
2022-12-29T06:39:37.285Z,969.14
2022-12-29T06:40:37.360Z,969.14
2022-12-29T06:41:37.374Z,969.16
2022-12-29T06:42:37.434Z,969.18
2022-12-29T06:43:37.456Z,969.18
2022-12-29T06:44:37.497Z,969.17
2022-12-29T06:45:38.565Z,969.18
2022-12-29T06:46:37.597Z,969.12
2022-12-29T06:47:37.649Z,969.16
2022-12-29T06:48:37.668Z,969.15
2022-12-29T06:49:37.729Z,969.14
2022-12-29T06:50:37.758Z,969.14
2022-12-29T06:51:37.821Z,969.13
2022-12-29T06:52:37.858Z,969.09
2022-12-29T06:53:37.895Z,969.08
2022-12-29T06:54:37.979Z,969.07
2022-12-29T06:55:37.984Z,969.10
2022-12-29T06:56:38.028Z,969.06
2022-12-29T06:57:38.077Z,969.08
2022-12-29T06:58:38.101Z,969.09
2022-12-29T06:59:38.155Z,969.07
2022-12-29T07:00:38.220Z,969.08
2022-12-29T07:01:38.415Z,969.10
2022-12-29T07:02:38.378Z,969.11
2022-12-29T07:03:38.350Z,969.11
2022-12-29T07:04:39.008Z,969.13
2022-12-29T07:05:39.012Z,969.13
2022-12-29T07:06:38.490Z,969.08
2022-12-29T07:07:38.516Z,969.15
2022-12-29T07:08:38.544Z,969.12
2022-12-29T07:09:39.510Z,969.13
2022-12-29T07:10:38.628Z,969.11
2022-12-29T07:11:38.701Z,969.13
2022-12-29T07:12:38.730Z,969.13
2022-12-29T07:13:38.792Z,969.09
2022-12-29T07:14:42.869Z,969.08
2022-12-29T07:15:38.870Z,969.10
2022-12-29T07:16:39.563Z,969.15
2022-12-29T07:17:38.950Z,969.20
2022-12-29T07:18:39.018Z,969.20
2022-12-29T07:19:39.055Z,969.22
2022-12-29T07:20:39.745Z,969.19
2022-12-29T07:21:39.127Z,969.24
2022-12-29T07:22:40.011Z,969.24
2022-12-29T07:23:39.199Z,969.27
2022-12-29T07:24:39.321Z,969.30
2022-12-29T07:25:39.293Z,969.28
2022-12-29T07:26:40.025Z,969.32
2022-12-29T07:27:39.390Z,969.29
2022-12-29T07:28:40.026Z,969.30
2022-12-29T07:29:39.490Z,969.29
2022-12-29T07:30:39.591Z,969.31
2022-12-29T07:31:39.679Z,969.31
2022-12-29T07:32:39.613Z,969.32
2022-12-29T07:33:40.510Z,969.33
2022-12-29T07:34:39.689Z,969.35
2022-12-29T07:35:40.521Z,969.34
2022-12-29T07:36:39.817Z,969.31
2022-12-29T07:37:39.837Z,969.31
2022-12-29T07:38:40.510Z,969.32
2022-12-29T07:39:39.917Z,969.34
2022-12-29T07:40:39.959Z,969.38
2022-12-29T07:41:40.033Z,969.39
2022-12-29T07:42:41.016Z,969.35
2022-12-29T07:43:40.136Z,969.32
2022-12-29T07:44:41.011Z,969.33
2022-12-29T07:45:41.056Z,969.30
2022-12-29T07:46:55.574Z,969.28
2022-12-29T07:47:41.019Z,969.31
2022-12-29T07:48:40.347Z,969.33
2022-12-29T07:49:41.031Z,969.31
2022-12-29T07:50:41.013Z,969.34
2022-12-29T07:51:40.450Z,969.29
2022-12-29T07:52:41.018Z,969.30
2022-12-29T07:53:40.571Z,969.34
2022-12-29T07:54:41.521Z,969.34
2022-12-29T07:55:41.522Z,969.33
2022-12-29T07:56:40.676Z,969.30
2022-12-29T07:57:40.729Z,969.32
2022-12-29T07:58:40.801Z,969.37
2022-12-29T07:59:41.512Z,969.35
2022-12-29T08:00:41.510Z,969.43
2022-12-29T08:01:41.040Z,969.48
2022-12-29T08:02:41.008Z,969.50
2022-12-29T08:03:41.056Z,969.50
2022-12-29T08:04:41.029Z,969.59
2022-12-29T08:05:42.012Z,969.55
2022-12-29T08:06:41.139Z,969.55
2022-12-29T08:07:41.205Z,969.57
2022-12-29T08:08:42.017Z,969.57
2022-12-29T08:09:41.284Z,969.60
2022-12-29T08:10:41.369Z,969.55
2022-12-29T08:11:42.013Z,969.54
2022-12-29T08:12:41.399Z,969.50
2022-12-29T08:13:41.474Z,969.53
2022-12-29T08:14:41.482Z,969.54
2022-12-29T08:15:42.544Z,969.55
2022-12-29T08:16:41.594Z,969.57
2022-12-29T08:17:42.525Z,969.60
2022-12-29T08:18:41.656Z,969.57
2022-12-29T08:19:41.719Z,969.59
2022-12-29T08:20:41.792Z,969.54
2022-12-29T08:21:41.815Z,969.57
2022-12-29T08:22:41.845Z,969.59
2022-12-29T08:23:41.879Z,969.58
2022-12-29T08:24:41.929Z,969.51
2022-12-29T08:25:41.966Z,969.49
2022-12-29T08:26:42.088Z,969.52
2022-12-29T08:27:42.066Z,969.56
2022-12-29T08:28:43.027Z,969.59
2022-12-29T08:29:42.155Z,969.57
2022-12-29T08:30:42.330Z,969.54
2022-12-29T08:31:42.266Z,969.53
2022-12-29T08:32:42.283Z,969.51
2022-12-29T08:33:42.333Z,969.55
2022-12-29T08:34:42.391Z,969.57
2022-12-29T08:35:42.473Z,969.58
2022-12-29T08:36:42.482Z,969.57
2022-12-29T08:37:42.518Z,969.51
2022-12-29T08:38:42.595Z,969.49
2022-12-29T08:39:42.621Z,969.48
2022-12-29T08:40:42.643Z,969.52
2022-12-29T08:41:42.694Z,969.55
2022-12-29T08:42:42.782Z,969.50
2022-12-29T08:43:42.775Z,969.48
2022-12-29T08:44:42.831Z,969.55
2022-12-29T08:45:42.891Z,969.50
2022-12-29T08:46:42.986Z,969.49
2022-12-29T08:47:42.980Z,969.48
2022-12-29T08:48:43.043Z,969.53
2022-12-29T08:49:43.057Z,969.46
2022-12-29T08:50:44.023Z,969.54
2022-12-29T08:51:43.171Z,969.54
2022-12-29T08:52:43.205Z,969.48
2022-12-29T08:53:44.023Z,969.49
2022-12-29T08:54:43.290Z,969.50
2022-12-29T08:55:43.330Z,969.49
2022-12-29T08:56:43.365Z,969.40
2022-12-29T08:57:43.451Z,969.43
2022-12-29T08:58:43.464Z,969.41
2022-12-29T08:59:44.017Z,969.50
2022-12-29T09:00:43.549Z,969.48
2022-12-29T09:01:43.754Z,969.48
2022-12-29T09:02:43.751Z,969.45
2022-12-29T09:04:13.524Z,969.44
2022-12-29T09:04:43.795Z,969.44
2022-12-29T11:51:58.725Z,968.62
2022-12-29T11:52:58.735Z,968.62
2022-12-29T11:53:58.792Z,968.62
2022-12-29T11:54:58.847Z,968.67
2022-12-29T11:55:58.880Z,968.65
2022-12-29T11:56:58.977Z,968.66
2022-12-29T11:57:58.975Z,968.64
2022-12-29T11:58:59.028Z,968.70
2022-12-29T11:59:59.064Z,968.64
2022-12-29T12:00:59.129Z,968.64
2022-12-29T12:01:59.336Z,968.67
2022-12-29T12:02:59.281Z,968.66
2022-12-29T12:03:59.303Z,968.56
2022-12-29T12:04:59.874Z,968.61
2022-12-29T12:05:59.394Z,968.62
2022-12-29T12:06:59.418Z,968.57
2022-12-29T12:07:59.470Z,968.52
2022-12-29T12:08:59.511Z,968.58
2022-12-29T12:10:06.561Z,968.55
2022-12-29T12:10:59.636Z,968.53
2022-12-29T12:12:00.432Z,968.45
2022-12-29T12:13:00.382Z,968.41
2022-12-29T12:13:59.751Z,968.36
2022-12-29T12:15:01.576Z,968.37
2022-12-29T12:16:00.003Z,968.36
2022-12-29T12:17:00.957Z,968.36
2022-12-29T12:17:59.952Z,968.39
2022-12-29T12:19:00.035Z,968.36
2022-12-29T12:20:00.054Z,968.38
2022-12-29T12:21:00.131Z,968.41
2022-12-29T12:22:00.178Z,968.36
2022-12-29T12:23:00.895Z,968.35
2022-12-29T12:24:00.268Z,968.31
2022-12-29T12:25:00.296Z,968.30
2022-12-29T12:26:00.377Z,968.29
2022-12-29T12:27:01.392Z,968.29
2022-12-29T12:28:01.119Z,968.30
2022-12-29T12:29:00.525Z,968.25
2022-12-29T12:30:00.544Z,968.25
2022-12-29T12:31:01.448Z,968.25
2022-12-29T12:32:00.683Z,968.25
2022-12-29T12:33:01.393Z,968.30
2022-12-29T12:34:01.389Z,968.25
2022-12-29T12:35:01.389Z,968.36
2022-12-29T12:36:01.391Z,968.34
2022-12-29T12:37:00.963Z,968.35
2022-12-29T12:38:00.946Z,968.31
2022-12-29T12:39:02.928Z,968.37
2022-12-29T12:40:01.111Z,968.37
2022-12-29T12:41:01.100Z,968.38
2022-12-29T12:42:01.164Z,968.41
2022-12-29T12:43:01.916Z,968.41
2022-12-29T12:47:00.632Z,968.52
2022-12-29T12:48:01.642Z,968.52
2022-12-29T12:49:01.647Z,968.53
2022-12-29T12:50:00.760Z,968.49
2022-12-29T12:51:00.805Z,968.46
2022-12-29T12:52:05.268Z,968.52
2022-12-29T12:53:00.909Z,968.54
2022-12-29T12:54:01.653Z,968.52
2022-12-29T12:55:01.647Z,968.45
2022-12-29T12:56:01.038Z,968.42
2022-12-29T12:57:01.120Z,968.34
2022-12-29T12:58:01.692Z,968.23
2022-12-29T12:59:08.943Z,968.16
2022-12-29T13:00:02.169Z,968.13
2022-12-29T13:01:01.277Z,968.05
2022-12-29T13:02:01.434Z,968.04
2022-12-29T13:03:02.281Z,968.00
2022-12-29T13:04:02.315Z,967.98
2022-12-29T13:05:02.163Z,967.98
2022-12-29T13:06:01.524Z,968.00
2022-12-29T13:07:01.615Z,967.97
2022-12-29T13:08:01.635Z,967.95
2022-12-29T13:09:02.653Z,967.96
2022-12-29T13:10:02.670Z,967.92
2022-12-29T13:11:01.758Z,967.96
2022-12-29T13:12:01.831Z,967.99
2022-12-29T13:13:01.905Z,967.99
2022-12-29T13:14:01.933Z,967.98
2022-12-29T13:15:02.657Z,967.95
2022-12-29T13:16:02.048Z,967.97
2022-12-29T13:17:02.052Z,967.95
2022-12-29T13:18:02.289Z,967.92
2022-12-29T13:19:02.227Z,967.94
2022-12-29T13:20:03.175Z,967.95
2022-12-29T13:21:02.236Z,967.99
2022-12-29T13:22:07.010Z,967.94
2022-12-29T13:23:02.378Z,967.95
2022-12-29T13:24:03.148Z,967.95
2022-12-29T13:25:02.425Z,968.03
2022-12-29T13:26:03.161Z,967.96
2022-12-29T13:27:02.525Z,967.96
2022-12-29T13:28:02.697Z,967.93
2022-12-29T13:29:02.648Z,967.88
2022-12-29T13:30:03.658Z,967.89
2022-12-29T13:31:02.844Z,967.88
2022-12-29T13:32:03.660Z,967.85
2022-12-29T13:33:03.695Z,967.88
2022-12-29T13:34:02.888Z,967.88
2022-12-29T13:35:03.663Z,967.83
2022-12-29T13:36:03.659Z,967.88
2022-12-29T13:37:03.019Z,967.88
2022-12-29T13:38:03.046Z,967.86
2022-12-29T13:39:03.174Z,967.86
2022-12-29T13:40:03.149Z,967.87
2022-12-29T13:41:03.217Z,967.88
2022-12-29T13:42:04.171Z,967.90
2022-12-29T13:43:04.192Z,967.83
2022-12-29T13:44:03.426Z,967.81
2022-12-29T13:45:04.195Z,967.82
2022-12-29T13:46:04.264Z,967.80
2022-12-29T13:47:03.504Z,967.86
2022-12-29T13:48:03.528Z,967.79
2022-12-29T13:49:03.661Z,967.79
2022-12-29T13:50:03.613Z,967.80
2022-12-29T13:51:03.731Z,967.75
2022-12-29T13:52:03.720Z,967.75
2022-12-29T13:53:03.810Z,967.80
2022-12-29T13:54:03.815Z,967.77
2022-12-29T13:55:04.660Z,967.77
2022-12-29T13:56:03.912Z,967.78
2022-12-29T13:57:07.680Z,967.80
2022-12-29T13:58:04.670Z,967.85
2022-12-29T13:59:04.046Z,967.84
2022-12-29T14:00:04.513Z,967.85
2022-12-29T14:01:04.134Z,967.82
2022-12-29T14:02:04.302Z,967.78
2022-12-29T14:03:05.283Z,967.84
2022-12-29T14:04:04.354Z,967.83
2022-12-29T14:05:04.336Z,967.83
2022-12-29T14:06:04.735Z,967.83
2022-12-29T14:07:05.233Z,967.81
2022-12-29T14:08:05.196Z,967.81
2022-12-29T14:09:04.605Z,967.83
2022-12-29T14:10:05.173Z,967.83
2022-12-29T14:11:05.168Z,967.82
2022-12-29T14:12:04.652Z,967.80
2022-12-29T14:13:05.681Z,967.83
2022-12-29T14:14:04.849Z,967.80
2022-12-29T14:15:05.670Z,967.83
2022-12-29T14:16:05.740Z,967.80
2022-12-29T14:17:05.835Z,967.83
2022-12-29T14:18:04.972Z,967.77
2022-12-29T14:19:05.013Z,967.72
2022-12-29T14:20:05.798Z,967.80
2022-12-29T14:21:05.090Z,967.84
2022-12-29T14:22:05.123Z,967.83
2022-12-29T14:23:05.175Z,967.88
2022-12-29T14:24:05.295Z,967.84
2022-12-29T14:25:06.226Z,967.89
2022-12-29T14:26:06.228Z,967.88
2022-12-29T14:27:05.405Z,967.90
2022-12-29T14:28:05.402Z,967.96
2022-12-29T14:29:05.504Z,968.07
2022-12-29T14:30:05.559Z,968.06
2022-12-29T14:31:06.228Z,968.12
2022-12-29T14:32:05.622Z,968.09
2022-12-29T14:33:05.661Z,968.00
2022-12-29T14:34:05.699Z,968.04
2022-12-29T14:35:05.771Z,968.03
2022-12-29T14:36:05.809Z,967.86
2022-12-29T14:37:05.838Z,967.83
2022-12-29T14:38:05.902Z,967.86
2022-12-29T14:39:05.920Z,967.91
2022-12-29T14:40:06.082Z,967.89
2022-12-29T14:41:10.887Z,967.82
2022-12-29T14:42:06.086Z,967.76
2022-12-29T14:43:06.177Z,967.92
2022-12-29T14:44:06.158Z,967.94
2022-12-29T14:45:06.237Z,967.90
2022-12-29T14:46:06.275Z,967.91
2022-12-29T14:47:06.313Z,967.98
2022-12-29T14:48:06.394Z,967.92
2022-12-29T14:49:06.397Z,967.91
2022-12-29T14:50:07.188Z,967.92
2022-12-29T14:51:07.179Z,967.92
2022-12-29T14:52:06.538Z,967.87
2022-12-29T14:53:06.613Z,967.80
2022-12-29T14:54:06.673Z,967.78
2022-12-29T14:55:07.187Z,967.87
2022-12-29T14:56:06.743Z,967.84
2022-12-29T14:57:07.694Z,967.86
2022-12-29T14:58:13.594Z,967.88
2022-12-29T14:59:07.738Z,967.91
2022-12-29T15:00:06.998Z,967.91
2022-12-29T15:01:07.759Z,967.90
2022-12-29T15:02:07.818Z,967.80
2022-12-29T15:03:07.792Z,967.77
2022-12-29T15:04:07.128Z,967.77
2022-12-29T15:05:07.139Z,967.77
2022-12-29T15:06:09.820Z,967.81
2022-12-29T15:07:07.253Z,967.92
2022-12-29T15:08:07.297Z,968.01
2022-12-29T15:09:07.401Z,968.04
2022-12-29T15:10:08.202Z,967.99
2022-12-29T15:11:07.432Z,968.00
2022-12-29T15:12:11.049Z,968.01
2022-12-29T15:13:08.181Z,967.98
2022-12-29T15:14:07.605Z,967.97
2022-12-29T15:15:08.238Z,968.02
2022-12-29T15:16:08.218Z,967.99
2022-12-29T15:17:07.701Z,968.03
2022-12-29T15:18:08.719Z,968.08
2022-12-29T15:19:07.886Z,968.12